sensor_id;sensor_type;location;lat;lon;timestamp;pressure;altitude;pressure_sealevel;temperature;humidity
13029;BME280;6581;42.662;23.402;2023-03-13T00:01:46;95602.56;;;2.31;60.64
13029;BME280;6581;42.662;23.402;2023-03-13T00:04:13;95597.94;;;2.28;60.96
13029;BME280;6581;42.662;23.402;2023-03-13T00:06:42;95595.22;;;2.33;60.88
13029;BME280;6581;42.662;23.402;2023-03-13T00:09:10;95594.44;;;2.33;61.44
13029;BME280;6581;42.662;23.402;2023-03-13T00:11:38;95598.78;;;2.37;61.01
13029;BME280;6581;42.662;23.402;2023-03-13T00:14:06;95602.63;;;2.40;61.08
13029;BME280;6581;42.662;23.402;2023-03-13T00:16:34;95598.28;;;2.35;61.09
13029;BME280;6581;42.662;23.402;2023-03-13T00:19:03;95600.72;;;2.32;61.24
13029;BME280;6581;42.662;23.402;2023-03-13T00:21:32;95596.41;;;2.27;60.96
13029;BME280;6581;42.662;23.402;2023-03-13T00:24:00;95601.50;;;2.32;60.72
13029;BME280;6581;42.662;23.402;2023-03-13T00:26:27;95606.06;;;2.27;61.05
13029;BME280;6581;42.662;23.402;2023-03-13T00:28:55;95619.03;;;2.32;60.66
13029;BME280;6581;42.662;23.402;2023-03-13T00:31:48;95612.19;;;2.22;60.88
13029;BME280;6581;42.662;23.402;2023-03-13T00:34:15;95623.31;;;2.28;60.89
13029;BME280;6581;42.662;23.402;2023-03-13T00:36:42;95619.84;;;2.18;61.09
13029;BME280;6581;42.662;23.402;2023-03-13T00:39:11;95617.41;;;2.22;61.38
13029;BME280;6581;42.662;23.402;2023-03-13T00:41:38;95620.34;;;2.07;61.51
13029;BME280;6581;42.662;23.402;2023-03-13T00:44:05;95613.47;;;2.11;62.13
13029;BME280;6581;42.662;23.402;2023-03-13T00:46:32;95617.69;;;2.20;61.77
13029;BME280;6581;42.662;23.402;2023-03-13T00:48:59;95617.28;;;2.05;62.12
13029;BME280;6581;42.662;23.402;2023-03-13T00:51:27;95613.47;;;2.11;61.83
13029;BME280;6581;42.662;23.402;2023-03-13T00:53:55;95616.41;;;2.09;61.94
13029;BME280;6581;42.662;23.402;2023-03-13T00:56:26;95609.97;;;2.15;61.66
13029;BME280;6581;42.662;23.402;2023-03-13T00:58:54;95604.38;;;2.08;61.95
13029;BME280;6581;42.662;23.402;2023-03-13T01:01:24;95610.69;;;2.07;61.55
13029;BME280;6581;42.662;23.402;2023-03-13T01:03:55;95612.22;;;2.08;61.75
13029;BME280;6581;42.662;23.402;2023-03-13T01:06:25;95613.22;;;1.99;61.83
13029;BME280;6581;42.662;23.402;2023-03-13T01:08:54;95620.00;;;2.00;62.14
13029;BME280;6581;42.662;23.402;2023-03-13T01:11:24;95622.97;;;2.07;62.16
13029;BME280;6581;42.662;23.402;2023-03-13T01:13:55;95614.78;;;2.00;62.13
13029;BME280;6581;42.662;23.402;2023-03-13T01:16:22;95619.41;;;2.03;61.98
13029;BME280;6581;42.662;23.402;2023-03-13T01:18:52;95612.56;;;1.93;61.92
13029;BME280;6581;42.662;23.402;2023-03-13T01:21:21;95608.59;;;1.96;62.10
13029;BME280;6581;42.662;23.402;2023-03-13T01:23:50;95605.97;;;1.96;62.93
13029;BME280;6581;42.662;23.402;2023-03-13T01:26:18;95607.03;;;1.95;64.09
13029;BME280;6581;42.662;23.402;2023-03-13T01:28:46;95615.16;;;1.93;63.97
13029;BME280;6581;42.662;23.402;2023-03-13T01:31:18;95614.22;;;1.89;64.67
13029;BME280;6581;42.662;23.402;2023-03-13T01:33:46;95625.34;;;1.81;65.50
13029;BME280;6581;42.662;23.402;2023-03-13T01:36:15;95628.59;;;1.64;67.15
13029;BME280;6581;42.662;23.402;2023-03-13T01:38:42;95628.38;;;1.47;69.10
13029;BME280;6581;42.662;23.402;2023-03-13T01:41:11;95621.63;;;1.32;70.13
13029;BME280;6581;42.662;23.402;2023-03-13T01:43:38;95623.16;;;1.33;71.08
13029;BME280;6581;42.662;23.402;2023-03-13T01:46:13;95629.66;;;1.36;71.17
13029;BME280;6581;42.662;23.402;2023-03-13T01:49:06;95624.81;;;1.16;73.36
13029;BME280;6581;42.662;23.402;2023-03-13T01:51:45;95628.19;;;1.03;75.00
13029;BME280;6581;42.662;23.402;2023-03-13T01:54:17;95643.56;;;1.04;75.81
13029;BME280;6581;42.662;23.402;2023-03-13T01:56:48;95634.94;;;1.04;76.10
13029;BME280;6581;42.662;23.402;2023-03-13T01:59:19;95627.56;;;0.92;77.85
13029;BME280;6581;42.662;23.402;2023-03-13T02:01:49;95631.81;;;0.88;77.72
13029;BME280;6581;42.662;23.402;2023-03-13T02:04:19;95632.41;;;0.85;77.70
13029;BME280;6581;42.662;23.402;2023-03-13T02:06:51;95636.25;;;0.87;78.27
13029;BME280;6581;42.662;23.402;2023-03-13T02:09:25;95638.47;;;0.80;77.83
13029;BME280;6581;42.662;23.402;2023-03-13T02:12:00;95634.91;;;0.76;77.91
13029;BME280;6581;42.662;23.402;2023-03-13T02:14:31;95632.44;;;0.66;78.48
13029;BME280;6581;42.662;23.402;2023-03-13T02:16:59;95641.13;;;0.62;79.46
13029;BME280;6581;42.662;23.402;2023-03-13T02:19:32;95641.69;;;0.59;79.78
13029;BME280;6581;42.662;23.402;2023-03-13T02:22:05;95651.81;;;0.60;79.74
13029;BME280;6581;42.662;23.402;2023-03-13T02:24:43;95646.25;;;0.67;79.34
13029;BME280;6581;42.662;23.402;2023-03-13T02:27:14;95653.88;;;0.63;79.35
13029;BME280;6581;42.662;23.402;2023-03-13T02:29:43;95656.44;;;0.50;79.67
13029;BME280;6581;42.662;23.402;2023-03-13T02:32:10;95657.50;;;0.49;80.32
13029;BME280;6581;42.662;23.402;2023-03-13T02:34:39;95662.38;;;0.36;80.28
13029;BME280;6581;42.662;23.402;2023-03-13T02:37:09;95663.91;;;0.37;80.22
13029;BME280;6581;42.662;23.402;2023-03-13T02:39:42;95671.66;;;0.24;80.71
13029;BME280;6581;42.662;23.402;2023-03-13T02:42:14;95679.34;;;0.15;81.13
13029;BME280;6581;42.662;23.402;2023-03-13T02:44:45;95677.88;;;0.09;82.51
13029;BME280;6581;42.662;23.402;2023-03-13T02:47:17;95689.13;;;0.23;82.11
13029;BME280;6581;42.662;23.402;2023-03-13T02:50:11;95689.88;;;0.05;82.55
13029;BME280;6581;42.662;23.402;2023-03-13T02:52:42;95699.81;;;0.03;83.06
13029;BME280;6581;42.662;23.402;2023-03-13T02:55:14;95699.63;;;-0.01;83.48
13029;BME280;6581;42.662;23.402;2023-03-13T02:57:45;95702.81;;;-0.09;84.42
13029;BME280;6581;42.662;23.402;2023-03-13T03:00:12;95696.63;;;-0.13;84.70
13029;BME280;6581;42.662;23.402;2023-03-13T03:02:42;95706.25;;;-0.13;85.28
13029;BME280;6581;42.662;23.402;2023-03-13T03:05:09;95702.97;;;-0.19;86.81
13029;BME280;6581;42.662;23.402;2023-03-13T03:07:36;95688.19;;;-0.23;87.43
13029;BME280;6581;42.662;23.402;2023-03-13T03:10:29;95702.88;;;-0.14;87.74
13029;BME280;6581;42.662;23.402;2023-03-13T03:12:57;95711.41;;;-0.08;87.65
13029;BME280;6581;42.662;23.402;2023-03-13T03:15:24;95699.81;;;0.03;87.28
13029;BME280;6581;42.662;23.402;2023-03-13T03:17:51;95703.63;;;0.11;87.12
13029;BME280;6581;42.662;23.402;2023-03-13T03:20:19;95699.13;;;0.16;86.12
13029;BME280;6581;42.662;23.402;2023-03-13T03:22:46;95718.91;;;0.17;85.60
13029;BME280;6581;42.662;23.402;2023-03-13T03:25:13;95716.66;;;0.11;85.13
13029;BME280;6581;42.662;23.402;2023-03-13T03:27:40;95727.63;;;0.08;85.27
13029;BME280;6581;42.662;23.402;2023-03-13T03:30:10;95727.69;;;0.03;85.50
13029;BME280;6581;42.662;23.402;2023-03-13T03:32:38;95743.59;;;0.01;85.80
13029;BME280;6581;42.662;23.402;2023-03-13T03:35:06;95742.06;;;0.00;86.46
13029;BME280;6581;42.662;23.402;2023-03-13T03:37:34;95747.91;;;0.11;86.37
13029;BME280;6581;42.662;23.402;2023-03-13T03:40:03;95749.25;;;0.08;86.18
13029;BME280;6581;42.662;23.402;2023-03-13T03:42:31;95754.88;;;0.15;85.83
13029;BME280;6581;42.662;23.402;2023-03-13T03:44:58;95746.22;;;0.20;85.95
13029;BME280;6581;42.662;23.402;2023-03-13T03:47:27;95750.06;;;0.27;85.65
13029;BME280;6581;42.662;23.402;2023-03-13T03:49:54;95758.53;;;0.14;85.83
13029;BME280;6581;42.662;23.402;2023-03-13T03:52:53;95778.06;;;0.17;86.12
13029;BME280;6581;42.662;23.402;2023-03-13T03:55:23;95773.06;;;-0.04;88.65
13029;BME280;6581;42.662;23.402;2023-03-13T03:57:51;95778.63;;;-0.10;90.21
13029;BME280;6581;42.662;23.402;2023-03-13T04:00:31;95776.72;;;-0.05;90.84
13029;BME280;6581;42.662;23.402;2023-03-13T04:03:00;95783.22;;;-0.02;91.22
13029;BME280;6581;42.662;23.402;2023-03-13T04:05:28;95779.94;;;-0.13;90.86
13029;BME280;6581;42.662;23.402;2023-03-13T04:07:55;95792.16;;;-0.08;90.88
13029;BME280;6581;42.662;23.402;2023-03-13T04:10:22;95785.63;;;-0.06;89.89
13029;BME280;6581;42.662;23.402;2023-03-13T04:12:49;95784.63;;;-0.10;90.99
13029;BME280;6581;42.662;23.402;2023-03-13T04:15:16;95793.59;;;-0.21;92.40
13029;BME280;6581;42.662;23.402;2023-03-13T04:17:44;95807.56;;;-0.12;93.09
13029;BME280;6581;42.662;23.402;2023-03-13T04:20:13;95806.50;;;-0.11;92.70
13029;BME280;6581;42.662;23.402;2023-03-13T04:22:41;95808.28;;;-0.06;91.97
13029;BME280;6581;42.662;23.402;2023-03-13T04:25:09;95809.16;;;-0.16;93.00
13029;BME280;6581;42.662;23.402;2023-03-13T04:27:36;95806.00;;;-0.13;93.25
13029;BME280;6581;42.662;23.402;2023-03-13T04:30:05;95806.16;;;-0.04;92.36
13029;BME280;6581;42.662;23.402;2023-03-13T04:32:51;95816.53;;;0.01;91.59
13029;BME280;6581;42.662;23.402;2023-03-13T04:35:51;95820.84;;;-0.13;92.65
13029;BME280;6581;42.662;23.402;2023-03-13T04:38:37;95826.72;;;-0.03;91.45
13029;BME280;6581;42.662;23.402;2023-03-13T04:41:23;95837.16;;;-0.03;90.33
13029;BME280;6581;42.662;23.402;2023-03-13T04:44:10;95840.25;;;-0.01;89.52
13029;BME280;6581;42.662;23.402;2023-03-13T04:46:40;95847.50;;;0.03;89.66
13029;BME280;6581;42.662;23.402;2023-03-13T04:49:07;95848.84;;;0.00;88.64
13029;BME280;6581;42.662;23.402;2023-03-13T04:52:11;95859.38;;;-0.10;87.53
13029;BME280;6581;42.662;23.402;2023-03-13T04:55:05;95864.47;;;0.00;87.31
13029;BME280;6581;42.662;23.402;2023-03-13T04:57:38;95858.50;;;-0.01;87.13
13029;BME280;6581;42.662;23.402;2023-03-13T05:00:38;95860.97;;;0.10;85.73
13029;BME280;6581;42.662;23.402;2023-03-13T05:03:38;95859.66;;;0.12;84.95
13029;BME280;6581;42.662;23.402;2023-03-13T05:06:12;95859.66;;;0.12;84.37
13029;BME280;6581;42.662;23.402;2023-03-13T05:08:59;95856.72;;;0.19;84.65
13029;BME280;6581;42.662;23.402;2023-03-13T05:11:53;95858.78;;;0.22;83.55
13029;BME280;6581;42.662;23.402;2023-03-13T05:14:40;95869.19;;;0.22;82.94
13029;BME280;6581;42.662;23.402;2023-03-13T05:17:25;95862.16;;;0.22;83.57
13029;BME280;6581;42.662;23.402;2023-03-13T05:20:24;95872.41;;;0.14;82.57
13029;BME280;6581;42.662;23.402;2023-03-13T05:23:09;95885.44;;;0.14;83.05
13029;BME280;6581;42.662;23.402;2023-03-13T05:25:49;95881.41;;;0.26;82.76
13029;BME280;6581;42.662;23.402;2023-03-13T05:28:34;95884.47;;;0.28;83.42
13029;BME280;6581;42.662;23.402;2023-03-13T05:31:20;95894.06;;;0.33;82.91
13029;BME280;6581;42.662;23.402;2023-03-13T05:34:12;95884.44;;;0.33;82.56
13029;BME280;6581;42.662;23.402;2023-03-13T05:36:51;95891.38;;;0.43;81.72
13029;BME280;6581;42.662;23.402;2023-03-13T05:39:37;95898.91;;;0.44;80.96
13029;BME280;6581;42.662;23.402;2023-03-13T05:42:26;95893.88;;;0.53;80.47
13029;BME280;6581;42.662;23.402;2023-03-13T05:45:14;95890.06;;;0.64;78.42
13029;BME280;6581;42.662;23.402;2023-03-13T05:48:14;95900.72;;;0.68;78.20
13029;BME280;6581;42.662;23.402;2023-03-13T05:51:02;95892.56;;;0.74;78.77
13029;BME280;6581;42.662;23.402;2023-03-13T05:53:50;95898.50;;;0.80;77.89
13029;BME280;6581;42.662;23.402;2023-03-13T05:56:41;95911.47;;;0.85;77.42
13029;BME280;6581;42.662;23.402;2023-03-13T05:59:35;95902.72;;;0.76;78.24
13029;BME280;6581;42.662;23.402;2023-03-13T06:02:20;95915.19;;;0.79;79.10
13029;BME280;6581;42.662;23.402;2023-03-13T06:04:48;95916.91;;;0.88;79.15
13029;BME280;6581;42.662;23.402;2023-03-13T06:07:16;95916.06;;;0.93;79.14
13029;BME280;6581;42.662;23.402;2023-03-13T06:09:43;95918.44;;;0.89;80.00
13029;BME280;6581;42.662;23.402;2023-03-13T06:12:10;95915.22;;;0.98;79.51
13029;BME280;6581;42.662;23.402;2023-03-13T06:14:39;95922.25;;;0.97;79.99
13029;BME280;6581;42.662;23.402;2023-03-13T06:17:13;95914.03;;;0.90;82.25
13029;BME280;6581;42.662;23.402;2023-03-13T06:19:40;95916.84;;;0.94;82.54
13029;BME280;6581;42.662;23.402;2023-03-13T06:22:07;95920.22;;;0.94;82.45
13029;BME280;6581;42.662;23.402;2023-03-13T06:24:34;95916.63;;;0.90;82.54
13029;BME280;6581;42.662;23.402;2023-03-13T06:27:01;95913.75;;;0.92;83.89
13029;BME280;6581;42.662;23.402;2023-03-13T06:29:28;95919.44;;;0.94;82.80
13029;BME280;6581;42.662;23.402;2023-03-13T06:31:56;95918.66;;;0.93;81.25
13029;BME280;6581;42.662;23.402;2023-03-13T06:34:23;95932.84;;;1.06;81.38
13029;BME280;6581;42.662;23.402;2023-03-13T06:36:50;95922.41;;;1.06;81.02
13029;BME280;6581;42.662;23.402;2023-03-13T06:39:17;95917.13;;;1.11;81.65
13029;BME280;6581;42.662;23.402;2023-03-13T06:41:44;95901.69;;;1.14;81.79
13029;BME280;6581;42.662;23.402;2023-03-13T06:44:12;95899.50;;;1.21;81.06
13029;BME280;6581;42.662;23.402;2023-03-13T06:46:39;95902.75;;;1.32;82.58
13029;BME280;6581;42.662;23.402;2023-03-13T06:49:07;95898.00;;;1.34;81.85
13029;BME280;6581;42.662;23.402;2023-03-13T06:51:34;95890.97;;;1.34;81.17
13029;BME280;6581;42.662;23.402;2023-03-13T06:54:02;95896.81;;;1.45;80.53
13029;BME280;6581;42.662;23.402;2023-03-13T06:56:29;95904.56;;;1.50;78.36
13029;BME280;6581;42.662;23.402;2023-03-13T06:58:56;95902.75;;;1.51;77.14
13029;BME280;6581;42.662;23.402;2023-03-13T07:01:23;95906.53;;;1.58;77.23
13029;BME280;6581;42.662;23.402;2023-03-13T07:03:51;95900.66;;;1.66;77.72
13029;BME280;6581;42.662;23.402;2023-03-13T07:06:19;95900.84;;;1.70;78.45
13029;BME280;6581;42.662;23.402;2023-03-13T07:08:46;95895.44;;;1.66;77.42
13029;BME280;6581;42.662;23.402;2023-03-13T07:11:39;95895.63;;;1.70;77.30
13029;BME280;6581;42.662;23.402;2023-03-13T07:14:06;95893.44;;;1.77;76.69
13029;BME280;6581;42.662;23.402;2023-03-13T07:16:33;95898.94;;;1.75;76.51
13029;BME280;6581;42.662;23.402;2023-03-13T07:19:00;95900.88;;;1.84;76.58
13029;BME280;6581;42.662;23.402;2023-03-13T07:21:54;95901.97;;;1.83;76.31
13029;BME280;6581;42.662;23.402;2023-03-13T07:24:21;95886.84;;;1.79;77.04
13029;BME280;6581;42.662;23.402;2023-03-13T07:26:48;95894.72;;;1.93;77.41
13029;BME280;6581;42.662;23.402;2023-03-13T07:29:15;95902.19;;;2.00;75.21
13029;BME280;6581;42.662;23.402;2023-03-13T07:31:42;95897.84;;;2.09;74.59
13029;BME280;6581;42.662;23.402;2023-03-13T07:34:09;95901.16;;;2.14;74.98
13029;BME280;6581;42.662;23.402;2023-03-13T07:36:36;95894.69;;;2.26;75.53
13029;BME280;6581;42.662;23.402;2023-03-13T07:39:07;95906.59;;;2.32;73.80
13029;BME280;6581;42.662;23.402;2023-03-13T07:41:34;95901.19;;;2.28;73.89
13029;BME280;6581;42.662;23.402;2023-03-13T07:44:01;95898.47;;;2.33;73.70
13029;BME280;6581;42.662;23.402;2023-03-13T07:46:28;95904.19;;;2.49;73.88
13029;BME280;6581;42.662;23.402;2023-03-13T07:48:56;95903.03;;;2.41;73.50
13029;BME280;6581;42.662;23.402;2023-03-13T07:51:25;95908.44;;;2.45;72.77
13029;BME280;6581;42.662;23.402;2023-03-13T07:53:52;95908.72;;;2.57;72.10
13029;BME280;6581;42.662;23.402;2023-03-13T07:56:22;95897.41;;;2.61;71.60
13029;BME280;6581;42.662;23.402;2023-03-13T07:58:49;95901.47;;;2.67;71.17
13029;BME280;6581;42.662;23.402;2023-03-13T08:01:19;95892.94;;;2.76;71.00
13029;BME280;6581;42.662;23.402;2023-03-13T08:03:47;95882.53;;;2.84;70.07
13029;BME280;6581;42.662;23.402;2023-03-13T08:06:17;95880.44;;;2.86;69.34
13029;BME280;6581;42.662;23.402;2023-03-13T08:08:45;95879.81;;;2.89;68.72
13029;BME280;6581;42.662;23.402;2023-03-13T08:11:13;95878.38;;;2.97;67.28
13029;BME280;6581;42.662;23.402;2023-03-13T08:13:43;95881.53;;;3.07;67.22
13029;BME280;6581;42.662;23.402;2023-03-13T08:16:11;95879.66;;;3.22;67.80
13029;BME280;6581;42.662;23.402;2023-03-13T08:18:40;95879.88;;;3.25;65.62
13029;BME280;6581;42.662;23.402;2023-03-13T08:21:09;95868.56;;;3.38;67.21
13029;BME280;6581;42.662;23.402;2023-03-13T08:23:37;95876.47;;;3.47;66.60
13029;BME280;6581;42.662;23.402;2023-03-13T08:26:06;95881.19;;;3.58;65.30
13029;BME280;6581;42.662;23.402;2023-03-13T08:28:34;95884.41;;;3.55;64.43
13029;BME280;6581;42.662;23.402;2023-03-13T08:31:08;95883.97;;;3.62;63.98
13029;BME280;6581;42.662;23.402;2023-03-13T08:33:35;95878.09;;;3.79;63.82
13029;BME280;6581;42.662;23.402;2023-03-13T08:36:10;95882.34;;;3.97;65.36
13029;BME280;6581;42.662;23.402;2023-03-13T08:38:38;95897.63;;;4.03;64.62
13029;BME280;6581;42.662;23.402;2023-03-13T08:41:07;95893.44;;;4.25;63.16
13029;BME280;6581;42.662;23.402;2023-03-13T08:43:34;95892.94;;;4.54;62.02
13029;BME280;6581;42.662;23.402;2023-03-13T08:46:01;95885.69;;;4.59;60.11
13029;BME280;6581;42.662;23.402;2023-03-13T08:48:29;95893.00;;;4.71;59.79
13029;BME280;6581;42.662;23.402;2023-03-13T08:51:01;95889.63;;;4.79;59.94
13029;BME280;6581;42.662;23.402;2023-03-13T08:53:29;95879.09;;;4.70;59.10
13029;BME280;6581;42.662;23.402;2023-03-13T08:55:56;95876.97;;;4.89;59.24
13029;BME280;6581;42.662;23.402;2023-03-13T08:58:23;95872.97;;;5.09;59.01
13029;BME280;6581;42.662;23.402;2023-03-13T09:00:50;95870.84;;;5.28;56.91
13029;BME280;6581;42.662;23.402;2023-03-13T09:03:17;95868.69;;;5.39;56.83
13029;BME280;6581;42.662;23.402;2023-03-13T09:05:46;95868.38;;;5.49;57.15
13029;BME280;6581;42.662;23.402;2023-03-13T09:08:13;95870.06;;;5.45;57.10
13029;BME280;6581;42.662;23.402;2023-03-13T09:10:40;95871.28;;;5.56;57.28
13029;BME280;6581;42.662;23.402;2023-03-13T09:13:07;95874.84;;;5.52;54.51
13029;BME280;6581;42.662;23.402;2023-03-13T09:15:34;95872.22;;;5.60;54.34
13029;BME280;6581;42.662;23.402;2023-03-13T09:18:01;95862.31;;;5.66;53.37
13029;BME280;6581;42.662;23.402;2023-03-13T09:20:28;95872.38;;;5.55;52.96
13029;BME280;6581;42.662;23.402;2023-03-13T09:22:57;95860.63;;;5.53;53.18
13029;BME280;6581;42.662;23.402;2023-03-13T09:25:24;95854.13;;;5.50;53.92
13029;BME280;6581;42.662;23.402;2023-03-13T09:27:51;95858.94;;;5.57;53.60
13029;BME280;6581;42.662;23.402;2023-03-13T09:30:18;95856.75;;;5.67;52.60
13029;BME280;6581;42.662;23.402;2023-03-13T09:32:46;95858.28;;;5.77;51.94
13029;BME280;6581;42.662;23.402;2023-03-13T09:35:13;95854.56;;;5.87;53.51
13029;BME280;6581;42.662;23.402;2023-03-13T09:37:40;95860.78;;;5.91;54.94
13029;BME280;6581;42.662;23.402;2023-03-13T09:40:13;95867.22;;;6.02;53.96
13029;BME280;6581;42.662;23.402;2023-03-13T09:42:45;95870.59;;;6.11;51.98
13029;BME280;6581;42.662;23.402;2023-03-13T09:45:17;95856.38;;;6.12;52.10
13029;BME280;6581;42.662;23.402;2023-03-13T09:47:47;95864.22;;;6.20;54.47
13029;BME280;6581;42.662;23.402;2023-03-13T09:50:20;95852.84;;;6.37;53.11
13029;BME280;6581;42.662;23.402;2023-03-13T09:52:50;95857.59;;;6.23;52.68
13029;BME280;6581;42.662;23.402;2023-03-13T09:55:46;95853.38;;;6.31;52.81
13029;BME280;6581;42.662;23.402;2023-03-13T09:58:16;95851.34;;;6.36;51.99
13029;BME280;6581;42.662;23.402;2023-03-13T10:00:47;95850.97;;;6.46;51.05
13029;BME280;6581;42.662;23.402;2023-03-13T10:03:22;95844.31;;;6.49;51.13
13029;BME280;6581;42.662;23.402;2023-03-13T10:05:54;95847.66;;;6.58;50.58
13029;BME280;6581;42.662;23.402;2023-03-13T10:08:23;95844.22;;;6.66;53.46
13029;BME280;6581;42.662;23.402;2023-03-13T10:10:55;95838.09;;;6.83;51.16
13029;BME280;6581;42.662;23.402;2023-03-13T10:13:27;95842.84;;;6.89;49.88
13029;BME280;6581;42.662;23.402;2023-03-13T10:16:00;95827.03;;;6.89;49.47
13029;BME280;6581;42.662;23.402;2023-03-13T10:18:30;95826.97;;;6.98;49.64
13029;BME280;6581;42.662;23.402;2023-03-13T10:21:00;95815.94;;;7.04;49.18
13029;BME280;6581;42.662;23.402;2023-03-13T10:23:37;95816.13;;;7.20;50.12
13029;BME280;6581;42.662;23.402;2023-03-13T10:26:10;95807.13;;;7.21;49.01
13029;BME280;6581;42.662;23.402;2023-03-13T10:28:42;95801.25;;;7.36;49.97
13029;BME280;6581;42.662;23.402;2023-03-13T10:31:13;95795.03;;;7.41;48.98
13029;BME280;6581;42.662;23.402;2023-03-13T10:33:43;95796.59;;;7.54;48.04
13029;BME280;6581;42.662;23.402;2023-03-13T10:36:12;95798.78;;;7.52;48.14
13029;BME280;6581;42.662;23.402;2023-03-13T10:38:48;95798.34;;;7.50;47.57
13029;BME280;6581;42.662;23.402;2023-03-13T10:41:25;95794.19;;;7.61;47.75
13029;BME280;6581;42.662;23.402;2023-03-13T10:43:54;95788.41;;;7.68;47.10
13029;BME280;6581;42.662;23.402;2023-03-13T10:46:26;95779.09;;;7.82;46.88
13029;BME280;6581;42.662;23.402;2023-03-13T10:48:54;95770.97;;;7.87;46.82
13029;BME280;6581;42.662;23.402;2023-03-13T10:51:23;95768.13;;;8.05;46.38
13029;BME280;6581;42.662;23.402;2023-03-13T10:53:50;95764.63;;;8.00;45.71
13029;BME280;6581;42.662;23.402;2023-03-13T10:56:25;95757.59;;;8.29;46.46
13029;BME280;6581;42.662;23.402;2023-03-13T10:58:54;95755.84;;;8.33;45.37
13029;BME280;6581;42.662;23.402;2023-03-13T11:01:23;95750.34;;;8.38;45.81
13029;BME280;6581;42.662;23.402;2023-03-13T11:03:52;95752.06;;;8.58;47.26
13029;BME280;6581;42.662;23.402;2023-03-13T11:06:24;95747.56;;;8.59;44.82
13029;BME280;6581;42.662;23.402;2023-03-13T11:08:58;95744.50;;;8.57;44.71
13029;BME280;6581;42.662;23.402;2023-03-13T11:11:27;95739.44;;;8.52;45.17
13029;BME280;6581;42.662;23.402;2023-03-13T11:14:07;95730.59;;;8.72;45.55
13029;BME280;6581;42.662;23.402;2023-03-13T11:17:03;95723.06;;;8.86;44.92
13029;BME280;6581;42.662;23.402;2023-03-13T11:22:42;95723.50;;;8.88;44.13
13029;BME280;6581;42.662;23.402;2023-03-13T11:25:19;95715.88;;;8.99;44.36
13029;BME280;6581;42.662;23.402;2023-03-13T11:27:57;95722.75;;;9.15;44.61
13029;BME280;6581;42.662;23.402;2023-03-13T11:30:44;95701.84;;;9.10;45.56
13029;BME280;6581;42.662;23.402;2023-03-13T11:33:28;95706.75;;;9.24;44.48
13029;BME280;6581;42.662;23.402;2023-03-13T11:36:01;95710.94;;;9.25;44.18
13029;BME280;6581;42.662;23.402;2023-03-13T11:38:34;95698.56;;;9.29;43.27
13029;BME280;6581;42.662;23.402;2023-03-13T11:41:12;95698.31;;;9.50;43.07
13029;BME280;6581;42.662;23.402;2023-03-13T11:43:59;95696.78;;;9.49;42.43
13029;BME280;6581;42.662;23.402;2023-03-13T11:46:42;95685.44;;;9.32;42.11
13029;BME280;6581;42.662;23.402;2023-03-13T11:49:25;95675.78;;;9.24;43.45
13029;BME280;6581;42.662;23.402;2023-03-13T11:52:08;95671.03;;;9.30;43.17
13029;BME280;6581;42.662;23.402;2023-03-13T11:57:38;95666.25;;;9.35;42.19
13029;BME280;6581;42.662;23.402;2023-03-13T12:00:19;95660.09;;;9.31;42.45
13029;BME280;6581;42.662;23.402;2023-03-13T12:02:52;95657.81;;;9.46;42.17
13029;BME280;6581;42.662;23.402;2023-03-13T12:05:50;95656.19;;;9.41;42.47
13029;BME280;6581;42.662;23.402;2023-03-13T12:08:20;95645.81;;;9.48;41.92
13029;BME280;6581;42.662;23.402;2023-03-13T12:10:57;95642.63;;;9.58;41.85
13029;BME280;6581;42.662;23.402;2023-03-13T12:13:31;95634.75;;;9.77;42.49
13029;BME280;6581;42.662;23.402;2023-03-13T12:16:07;95634.91;;;10.00;42.61
13029;BME280;6581;42.662;23.402;2023-03-13T12:18:37;95630.88;;;10.06;41.32
13029;BME280;6581;42.662;23.402;2023-03-13T12:21:13;95629.97;;;9.99;39.95
13029;BME280;6581;42.662;23.402;2023-03-13T12:23:47;95629.34;;;10.05;41.44
13029;BME280;6581;42.662;23.402;2023-03-13T12:26:18;95620.63;;;10.05;39.87
13029;BME280;6581;42.662;23.402;2023-03-13T12:28:55;95621.13;;;10.26;39.61
13029;BME280;6581;42.662;23.402;2023-03-13T12:31:29;95619.97;;;10.43;39.44
13029;BME280;6581;42.662;23.402;2023-03-13T12:34:02;95614.53;;;10.55;39.24
13029;BME280;6581;42.662;23.402;2023-03-13T12:37:00;95611.25;;;10.81;39.05
13029;BME280;6581;42.662;23.402;2023-03-13T12:39:34;95608.44;;;10.93;38.34
13029;BME280;6581;42.662;23.402;2023-03-13T12:42:12;95617.94;;;10.94;38.03
13029;BME280;6581;42.662;23.402;2023-03-13T12:44:42;95609.81;;;11.06;37.73
13029;BME280;6581;42.662;23.402;2023-03-13T12:47:15;95613.31;;;11.33;37.77
13029;BME280;6581;42.662;23.402;2023-03-13T12:50:15;95608.28;;;11.50;38.57
13029;BME280;6581;42.662;23.402;2023-03-13T12:53:19;95609.28;;;11.65;36.45
13029;BME280;6581;42.662;23.402;2023-03-13T12:56:17;95608.16;;;11.66;36.91
13029;BME280;6581;42.662;23.402;2023-03-13T12:58:48;95605.72;;;11.77;37.24
13029;BME280;6581;42.662;23.402;2023-03-13T13:01:27;95616.13;;;11.66;36.96
13029;BME280;6581;42.662;23.402;2023-03-13T13:03:59;95617.00;;;11.51;38.39
13029;BME280;6581;42.662;23.402;2023-03-13T13:06:29;95606.06;;;11.75;37.07
13029;BME280;6581;42.662;23.402;2023-03-13T13:09:21;95612.59;;;11.81;37.57
13029;BME280;6581;42.662;23.402;2023-03-13T13:11:50;95616.56;;;11.68;36.65
13029;BME280;6581;42.662;23.402;2023-03-13T13:14:56;95616.59;;;11.72;36.01
13029;BME280;6581;42.662;23.402;2023-03-13T13:17:44;95614.88;;;11.83;35.73
13029;BME280;6581;42.662;23.402;2023-03-13T13:20:32;95609.84;;;12.01;35.29
13029;BME280;6581;42.662;23.402;2023-03-13T13:23:33;95604.84;;;11.95;35.83
13029;BME280;6581;42.662;23.402;2023-03-13T13:29:54;95600.31;;;11.96;35.81
13029;BME280;6581;42.662;23.402;2023-03-13T13:32:41;95595.81;;;12.00;36.19
13029;BME280;6581;42.662;23.402;2023-03-13T13:35:31;95587.28;;;11.87;35.83
13029;BME280;6581;42.662;23.402;2023-03-13T13:41:23;95590.84;;;11.49;35.74
13029;BME280;6581;42.662;23.402;2023-03-13T13:44:19;95580.53;;;11.44;36.20
13029;BME280;6581;42.662;23.402;2023-03-13T13:46:47;95584.09;;;11.55;35.51
13029;BME280;6581;42.662;23.402;2023-03-13T13:49:16;95591.38;;;11.59;35.68
13029;BME280;6581;42.662;23.402;2023-03-13T13:55:00;95582.25;;;11.82;36.13
13029;BME280;6581;42.662;23.402;2023-03-13T13:57:30;95575.66;;;11.95;35.73
13029;BME280;6581;42.662;23.402;2023-03-13T14:00:03;95577.09;;;12.19;35.78